createdAt,value
2018-05-23T00:00:46.239Z,19.95
2018-05-23T00:01:49.566Z,19.95
2018-05-23T00:02:52.878Z,19.94
2018-05-23T00:03:56.202Z,19.94
2018-05-23T00:04:59.547Z,19.94
2018-05-23T00:06:02.864Z,19.94
2018-05-23T00:07:06.216Z,19.94
2018-05-23T00:08:09.558Z,19.94
2018-05-23T00:09:12.876Z,19.95
2018-05-23T00:10:16.227Z,19.95
2018-05-23T00:11:19.540Z,19.95
2018-05-23T00:12:22.862Z,19.95
2018-05-23T00:13:26.180Z,19.95
2018-05-23T00:14:29.506Z,19.95
2018-05-23T00:15:32.874Z,19.94
2018-05-23T00:16:36.202Z,19.94
2018-05-23T00:17:39.827Z,19.95
2018-05-23T00:18:43.153Z,19.94
2018-05-23T00:19:46.475Z,19.94
2018-05-23T00:20:49.810Z,19.95
2018-05-23T00:21:53.152Z,19.95
2018-05-23T00:22:56.785Z,19.95
2018-05-23T00:24:00.091Z,19.95
2018-05-23T00:25:03.484Z,19.95
2018-05-23T00:26:06.835Z,19.96
2018-05-23T00:27:10.163Z,19.96
2018-05-23T00:28:13.493Z,19.96
2018-05-23T00:29:16.828Z,19.96
2018-05-23T00:30:20.139Z,19.95
2018-05-23T00:31:23.481Z,19.95
2018-05-23T00:32:26.801Z,19.93
2018-05-23T00:33:30.134Z,19.93
2018-05-23T00:34:33.464Z,19.93
2018-05-23T00:35:36.787Z,19.93
2018-05-23T00:36:40.137Z,19.93
2018-05-23T00:37:43.460Z,19.93
2018-05-23T00:38:46.797Z,19.93
2018-05-23T00:39:50.151Z,19.92
2018-05-23T00:40:53.466Z,19.91
2018-05-23T00:41:56.805Z,19.91
2018-05-23T00:43:00.134Z,19.90
2018-05-23T00:44:03.442Z,19.91
2018-05-23T00:45:06.766Z,19.90
2018-05-23T00:46:10.121Z,19.90
2018-05-23T00:47:13.463Z,19.89
2018-05-23T00:48:16.780Z,19.88
2018-05-23T00:49:20.159Z,19.88
2018-05-23T00:50:23.516Z,19.87
2018-05-23T00:51:26.802Z,19.87
2018-05-23T00:52:30.142Z,19.86
2018-05-23T00:53:33.471Z,19.83
2018-05-23T00:54:36.798Z,19.81
2018-05-23T00:55:40.127Z,19.80
2018-05-23T00:56:43.437Z,19.79
2018-05-23T00:57:46.795Z,19.77
2018-05-23T00:58:50.489Z,19.76
2018-05-23T00:59:53.787Z,19.76
2018-05-23T01:00:57.113Z,19.74
2018-05-23T01:02:00.452Z,19.73
2018-05-23T01:03:03.784Z,19.72
2018-05-23T01:04:07.114Z,19.72
2018-05-23T01:05:10.427Z,19.72
2018-05-23T01:06:13.746Z,19.72
2018-05-23T01:07:17.065Z,19.72
2018-05-23T01:08:20.507Z,19.72
2018-05-23T01:09:23.798Z,19.72
2018-05-23T01:10:27.129Z,19.73
2018-05-23T01:11:30.446Z,19.74
2018-05-23T01:12:33.775Z,19.74
2018-05-23T01:13:37.106Z,19.74
2018-05-23T01:14:40.471Z,19.75
2018-05-23T01:15:43.813Z,19.75
2018-05-23T01:16:47.132Z,19.75
2018-05-23T01:17:50.469Z,19.76
2018-05-23T01:18:53.815Z,19.76
2018-05-23T01:19:57.132Z,19.77
2018-05-23T01:21:00.455Z,19.78
2018-05-23T01:22:03.808Z,19.78
2018-05-23T01:23:07.461Z,19.78
2018-05-23T01:24:10.805Z,19.79
2018-05-23T01:25:14.127Z,19.79
2018-05-23T01:26:17.453Z,19.80
2018-05-23T01:27:20.782Z,19.81
2018-05-23T01:28:24.118Z,19.81
2018-05-23T01:29:27.459Z,19.82
2018-05-23T01:30:31.535Z,19.82
2018-05-23T01:31:34.855Z,19.83
2018-05-23T01:32:38.331Z,19.83
2018-05-23T01:33:41.666Z,19.84
2018-05-23T01:34:45.002Z,19.85
2018-05-23T01:35:48.340Z,19.86
2018-05-23T01:36:51.658Z,19.85
2018-05-23T01:37:54.980Z,19.85
2018-05-23T01:38:58.597Z,19.86
2018-05-23T01:40:01.927Z,19.86
2018-05-23T01:41:05.266Z,19.86
2018-05-23T01:42:08.599Z,19.87
2018-05-23T01:43:11.912Z,19.87
2018-05-23T01:44:15.243Z,19.88
2018-05-23T01:45:18.581Z,19.87
2018-05-23T01:46:21.907Z,19.87
2018-05-23T01:47:25.209Z,19.87
2018-05-23T01:48:40.233Z,19.86
2018-05-23T01:49:43.543Z,19.83
2018-05-23T01:50:46.890Z,19.83
2018-05-23T01:51:50.217Z,19.82
2018-05-23T01:52:53.534Z,19.81
2018-05-23T01:53:56.900Z,19.80
2018-05-23T01:55:00.255Z,19.79
2018-05-23T01:56:03.619Z,19.77
2018-05-23T01:57:06.928Z,19.76
2018-05-23T01:58:10.265Z,19.74
2018-05-23T01:59:13.600Z,19.73
2018-05-23T02:00:16.934Z,19.72
2018-05-23T02:01:20.294Z,19.72
2018-05-23T02:02:23.653Z,19.71
2018-05-23T02:03:26.987Z,19.70
2018-05-23T02:04:30.311Z,19.70
2018-05-23T02:05:33.634Z,19.69
2018-05-23T02:06:37.004Z,19.69
2018-05-23T02:07:40.342Z,19.69
2018-05-23T02:08:43.671Z,19.69
2018-05-23T02:09:46.991Z,19.69
2018-05-23T02:10:50.322Z,19.68
2018-05-23T02:11:53.662Z,19.68
2018-05-23T02:12:56.988Z,19.67
2018-05-23T02:14:00.379Z,19.67
2018-05-23T02:15:03.701Z,19.67
2018-05-23T02:16:07.033Z,19.67
2018-05-23T02:17:10.368Z,19.67
2018-05-23T02:18:13.696Z,19.67
2018-05-23T02:19:17.022Z,19.67
2018-05-23T02:20:20.361Z,19.67
2018-05-23T02:21:23.693Z,19.68
2018-05-23T02:22:27.059Z,19.67
2018-05-23T02:23:30.556Z,19.67
2018-05-23T02:24:33.883Z,19.66
2018-05-23T02:25:37.226Z,19.65
2018-05-23T02:26:40.547Z,19.65
2018-05-23T02:27:43.920Z,19.65
2018-05-23T02:28:47.231Z,19.65
2018-05-23T02:29:50.550Z,19.65
2018-05-23T02:30:53.873Z,19.65
2018-05-23T02:31:57.205Z,19.65
2018-05-23T02:33:00.558Z,19.64
2018-05-23T02:34:03.935Z,19.64
2018-05-23T02:35:07.247Z,19.64
2018-05-23T02:36:10.599Z,19.64
2018-05-23T02:37:13.918Z,19.63
2018-05-23T02:38:17.265Z,19.63
2018-05-23T02:39:20.591Z,19.62
2018-05-23T02:40:23.916Z,19.60
2018-05-23T02:41:27.249Z,19.60
2018-05-23T02:42:30.563Z,19.59
2018-05-23T02:43:33.916Z,19.58
2018-05-23T02:44:37.236Z,19.56
2018-05-23T02:45:40.592Z,19.55
2018-05-23T02:46:43.939Z,19.54
2018-05-23T02:47:47.258Z,19.52
2018-05-23T02:48:50.614Z,19.52
2018-05-23T02:49:53.943Z,19.52
2018-05-23T02:50:57.267Z,19.51
2018-05-23T02:52:00.601Z,19.50
2018-05-23T02:53:03.939Z,19.49
2018-05-23T02:54:07.295Z,19.49
2018-05-23T02:55:10.630Z,19.48
2018-05-23T02:56:13.960Z,19.47
2018-05-23T02:57:17.279Z,19.46
2018-05-23T02:58:20.607Z,19.46
2018-05-23T02:59:23.971Z,19.45
2018-05-23T03:00:27.307Z,19.45
2018-05-23T03:01:30.648Z,19.45
2018-05-23T03:02:33.967Z,19.45
2018-05-23T03:03:37.320Z,19.44
2018-05-23T03:04:40.651Z,19.44
2018-05-23T03:05:43.978Z,19.44
2018-05-23T03:06:47.317Z,19.43
2018-05-23T03:07:50.641Z,19.42
2018-05-23T03:08:53.954Z,19.41
2018-05-23T03:09:57.330Z,19.40
2018-05-23T03:11:00.655Z,19.40
2018-05-23T03:12:03.997Z,19.39
2018-05-23T03:13:07.296Z,19.39
2018-05-23T03:14:10.651Z,19.39
2018-05-23T03:15:13.986Z,19.39
2018-05-23T03:16:17.309Z,19.39
2018-05-23T03:17:20.635Z,19.39
2018-05-23T03:18:23.963Z,19.40
2018-05-23T03:19:27.283Z,19.39
2018-05-23T03:20:30.671Z,19.40
2018-05-23T03:21:34.047Z,19.39
2018-05-23T03:22:37.390Z,19.39
2018-05-23T03:23:41.118Z,19.39
2018-05-23T03:24:44.538Z,19.39
2018-05-23T03:25:47.895Z,19.39
2018-05-23T03:26:51.231Z,19.38
2018-05-23T03:27:54.571Z,19.38
2018-05-23T03:28:57.910Z,19.38
2018-05-23T03:30:01.244Z,19.38
2018-05-23T03:31:04.588Z,19.38
2018-05-23T03:32:07.974Z,19.38
2018-05-23T03:33:11.308Z,19.38
2018-05-23T03:34:14.634Z,19.38
2018-05-23T03:35:17.976Z,19.38
2018-05-23T03:36:21.307Z,19.38
2018-05-23T03:37:24.645Z,19.39
2018-05-23T03:38:28.431Z,19.39
2018-05-23T03:39:31.769Z,19.39
2018-05-23T03:40:35.106Z,19.40
2018-05-23T03:41:38.541Z,19.40
2018-05-23T03:42:41.809Z,19.41
2018-05-23T03:43:45.133Z,19.41
2018-05-23T03:44:48.472Z,19.41
2018-05-23T03:45:51.807Z,19.41
2018-05-23T03:46:55.151Z,19.41
2018-05-23T03:47:58.499Z,19.41
2018-05-23T03:49:01.828Z,19.40
2018-05-23T03:50:05.152Z,19.40
2018-05-23T03:51:08.492Z,19.39
2018-05-23T03:52:11.835Z,19.40
2018-05-23T03:53:15.162Z,19.39
2018-05-23T03:54:18.563Z,19.40
2018-05-23T03:55:21.978Z,19.40
2018-05-23T03:56:25.240Z,19.39
2018-05-23T03:57:28.589Z,19.41
2018-05-23T03:58:31.904Z,19.41
2018-05-23T03:59:46.965Z,19.41
2018-05-23T04:01:02.176Z,19.39
2018-05-23T04:02:17.382Z,19.37
2018-05-23T04:03:32.388Z,19.36
2018-05-23T04:04:47.553Z,19.36
2018-05-23T04:06:02.754Z,19.35
2018-05-23T04:07:17.859Z,19.36
2018-05-23T04:08:21.196Z,19.35
2018-05-23T04:09:24.542Z,19.37
2018-05-23T04:10:27.868Z,19.39
2018-05-23T04:11:31.195Z,19.41
2018-05-23T04:12:34.520Z,19.42
2018-05-23T04:13:37.840Z,19.43
2018-05-23T04:14:41.192Z,19.44
2018-05-23T04:15:44.643Z,19.45
2018-05-23T04:16:47.951Z,19.46
2018-05-23T04:17:51.278Z,19.47
2018-05-23T04:18:54.691Z,19.47
2018-05-23T04:19:58.148Z,19.49
2018-05-23T04:21:01.578Z,19.49
2018-05-23T04:22:04.894Z,19.50
2018-05-23T04:23:08.265Z,19.51
2018-05-23T04:24:11.791Z,19.52
2018-05-23T04:25:15.147Z,19.52
2018-05-23T04:26:18.484Z,19.52
2018-05-23T04:27:21.799Z,19.53
2018-05-23T04:28:25.167Z,19.54
2018-05-23T04:29:28.493Z,19.54
2018-05-23T04:30:31.834Z,19.55
2018-05-23T04:31:35.377Z,19.55
2018-05-23T04:32:38.972Z,19.56
2018-05-23T04:33:42.288Z,19.56
2018-05-23T04:34:45.611Z,19.57
2018-05-23T04:35:48.959Z,19.56
2018-05-23T04:36:52.279Z,19.56
2018-05-23T04:37:55.625Z,19.56
2018-05-23T04:38:58.930Z,19.57
2018-05-23T04:40:02.347Z,19.57
2018-05-23T04:41:05.802Z,19.58
2018-05-23T04:42:09.139Z,19.58
2018-05-23T04:43:12.467Z,19.59
2018-05-23T04:44:15.776Z,19.58
2018-05-23T04:45:19.097Z,19.57
2018-05-23T04:46:22.442Z,19.57
2018-05-23T04:47:25.764Z,19.57
2018-05-23T04:48:29.076Z,19.57
2018-05-23T04:49:32.395Z,19.57
2018-05-23T04:50:35.759Z,19.56
2018-05-23T04:51:39.120Z,19.56
2018-05-23T04:52:42.439Z,19.56
2018-05-23T04:53:45.758Z,19.56
2018-05-23T04:54:49.077Z,19.56
2018-05-23T04:55:52.636Z,19.57
2018-05-23T04:56:55.956Z,19.58
2018-05-23T04:57:59.275Z,19.59
2018-05-23T04:59:02.622Z,19.58
2018-05-23T05:00:05.945Z,19.58
2018-05-23T05:01:09.267Z,19.58
2018-05-23T05:02:12.610Z,19.58
2018-05-23T05:03:15.944Z,19.57
2018-05-23T05:04:19.247Z,19.58
2018-05-23T05:05:22.563Z,19.57
2018-05-23T05:06:25.891Z,19.57
2018-05-23T05:07:29.229Z,19.58
2018-05-23T05:08:32.539Z,19.59
2018-05-23T05:09:35.868Z,19.59
2018-05-23T05:10:39.184Z,19.60
2018-05-23T05:11:42.515Z,19.61
2018-05-23T05:12:45.856Z,19.62
2018-05-23T05:13:49.407Z,19.63
2018-05-23T05:14:52.755Z,19.64
2018-05-23T05:15:56.079Z,19.64
2018-05-23T05:16:59.400Z,19.63
2018-05-23T05:18:02.749Z,19.64
2018-05-23T05:19:06.096Z,19.64
2018-05-23T05:20:09.427Z,19.64
2018-05-23T05:21:12.987Z,19.65
2018-05-23T05:22:16.313Z,19.66
2018-05-23T05:23:19.666Z,19.66
2018-05-23T05:24:23.176Z,19.66
2018-05-23T05:25:26.510Z,19.65
2018-05-23T05:26:29.846Z,19.64
2018-05-23T05:27:33.188Z,19.65
2018-05-23T05:28:36.596Z,19.65
2018-05-23T05:29:40.020Z,19.66
2018-05-23T05:30:43.333Z,19.66
2018-05-23T05:31:46.694Z,19.67
2018-05-23T05:32:50.014Z,19.67
2018-05-23T05:33:53.350Z,19.68
2018-05-23T05:34:56.680Z,19.68
2018-05-23T05:36:00.035Z,19.68
2018-05-23T05:37:03.354Z,19.69
2018-05-23T05:38:06.688Z,19.71
2018-05-23T05:39:10.022Z,19.71
2018-05-23T05:40:13.354Z,19.72
2018-05-23T05:41:16.693Z,19.72
2018-05-23T05:42:20.012Z,19.72
2018-05-23T05:43:23.339Z,19.71
2018-05-23T05:44:26.683Z,19.72
2018-05-23T05:45:30.008Z,19.73
2018-05-23T05:46:33.331Z,19.72
2018-05-23T05:47:36.659Z,19.72
2018-05-23T05:48:39.978Z,19.71
2018-05-23T05:49:43.318Z,19.71
2018-05-23T05:50:46.654Z,19.72
2018-05-23T05:51:49.970Z,19.72
2018-05-23T05:52:53.290Z,19.72
2018-05-23T05:53:56.608Z,19.71
2018-05-23T05:54:59.959Z,19.73
2018-05-23T05:56:03.286Z,19.73
2018-05-23T05:57:06.732Z,19.73
2018-05-23T05:58:10.047Z,19.74
2018-05-23T05:59:13.378Z,19.74
2018-05-23T06:00:16.727Z,19.75
2018-05-23T06:01:20.067Z,19.76
2018-05-23T06:02:23.427Z,19.76
2018-05-23T06:03:26.824Z,19.75
2018-05-23T06:04:30.131Z,19.76
2018-05-23T06:05:33.478Z,19.78
2018-05-23T06:06:36.779Z,19.79
2018-05-23T06:07:40.122Z,19.80
2018-05-23T06:08:43.503Z,19.82
2018-05-23T06:09:46.881Z,19.83
2018-05-23T06:10:50.254Z,19.85
2018-05-23T06:11:53.583Z,19.85
2018-05-23T06:12:56.923Z,19.86
2018-05-23T06:14:00.267Z,19.87
2018-05-23T06:15:03.558Z,19.88
2018-05-23T06:16:06.915Z,19.90
2018-05-23T06:17:10.253Z,19.91
2018-05-23T06:18:13.584Z,19.92
2018-05-23T06:19:16.906Z,19.93
2018-05-23T06:20:20.218Z,19.95
2018-05-23T06:21:23.588Z,19.97
2018-05-23T06:22:27.012Z,19.99
2018-05-23T06:23:30.279Z,19.99
2018-05-23T06:24:33.686Z,20.00
2018-05-23T06:25:36.994Z,20.00
2018-05-23T06:26:40.471Z,20.02
2018-05-23T06:27:43.795Z,20.03
2018-05-23T06:28:47.106Z,20.05
2018-05-23T06:29:50.430Z,20.07
2018-05-23T06:30:53.755Z,20.09
2018-05-23T06:31:57.125Z,20.10
2018-05-23T06:33:00.464Z,20.12
2018-05-23T06:34:04.282Z,20.14
2018-05-23T06:35:07.591Z,20.15
2018-05-23T06:36:10.919Z,20.16
2018-05-23T06:37:14.436Z,20.18
2018-05-23T06:38:17.796Z,20.19
2018-05-23T06:39:21.146Z,20.21
2018-05-23T06:40:24.467Z,20.23
2018-05-23T06:41:27.845Z,20.25
2018-05-23T06:42:31.187Z,20.26
2018-05-23T06:43:34.571Z,20.28
2018-05-23T06:44:37.839Z,20.30
2018-05-23T06:45:41.269Z,20.32
2018-05-23T06:46:44.601Z,20.34
2018-05-23T06:47:47.924Z,20.36
2018-05-23T06:48:51.262Z,20.38
2018-05-23T06:49:54.594Z,20.39
2018-05-23T06:50:57.907Z,20.41
2018-05-23T06:52:01.302Z,20.42
2018-05-23T06:53:04.645Z,20.44
2018-05-23T06:54:07.954Z,20.44
2018-05-23T06:55:11.272Z,20.46
2018-05-23T06:56:14.739Z,20.46
2018-05-23T06:57:18.047Z,20.48
2018-05-23T06:58:21.400Z,20.49
2018-05-23T06:59:24.723Z,20.51
2018-05-23T07:00:28.040Z,20.53
2018-05-23T07:01:31.348Z,20.56
2018-05-23T07:02:34.666Z,20.59
2018-05-23T07:03:38.041Z,20.61
2018-05-23T07:04:41.369Z,20.62
2018-05-23T07:05:44.722Z,20.65
2018-05-23T07:06:48.032Z,20.67
2018-05-23T07:07:51.354Z,20.68
2018-05-23T07:08:54.709Z,20.69
2018-05-23T07:09:58.026Z,20.71
2018-05-23T07:11:01.439Z,20.73
2018-05-23T07:12:04.720Z,20.76
2018-05-23T07:13:08.044Z,20.78
2018-05-23T07:14:11.383Z,20.79
2018-05-23T07:15:14.765Z,20.82
2018-05-23T07:16:18.076Z,20.84
2018-05-23T07:17:21.415Z,20.87
2018-05-23T07:18:24.720Z,20.91
2018-05-23T07:19:28.051Z,20.95
2018-05-23T07:20:31.381Z,20.99
2018-05-23T07:21:34.714Z,21.03
2018-05-23T07:22:38.047Z,21.07
2018-05-23T07:23:41.405Z,21.10
2018-05-23T07:24:44.893Z,21.16
2018-05-23T07:25:48.249Z,21.20
2018-05-23T07:26:51.543Z,21.24
2018-05-23T07:27:55.201Z,21.28
2018-05-23T07:28:58.523Z,21.32
2018-05-23T07:30:02.059Z,21.37
2018-05-23T07:31:05.374Z,21.42
2018-05-23T07:32:08.698Z,21.47
2018-05-23T07:33:12.035Z,21.53
2018-05-23T07:34:15.372Z,21.58
2018-05-23T07:35:18.754Z,21.63
2018-05-23T07:36:22.108Z,21.68
2018-05-23T07:37:25.432Z,21.72
2018-05-23T07:38:28.837Z,21.74
2018-05-23T07:39:32.087Z,21.76
2018-05-23T07:40:35.433Z,21.80
2018-05-23T07:41:38.757Z,21.82
2018-05-23T07:42:42.073Z,21.86
2018-05-23T07:43:45.401Z,21.89
2018-05-23T07:44:48.741Z,21.94
2018-05-23T07:45:52.168Z,21.99
2018-05-23T07:46:55.408Z,22.02
2018-05-23T07:47:58.742Z,22.07
2018-05-23T07:49:02.110Z,22.11
2018-05-23T07:50:06.508Z,22.15
2018-05-23T07:51:09.849Z,22.20
2018-05-23T07:52:13.159Z,22.24
2018-05-23T07:53:16.502Z,22.28
2018-05-23T07:54:19.999Z,22.31
2018-05-23T07:55:23.401Z,22.35
2018-05-23T07:56:26.750Z,22.39
2018-05-23T07:57:30.076Z,22.41
2018-05-23T07:58:33.409Z,22.46
2018-05-23T07:59:36.736Z,22.50
2018-05-23T08:00:40.151Z,22.54
2018-05-23T08:01:43.435Z,22.57
2018-05-23T08:02:46.770Z,22.62
2018-05-23T08:03:50.120Z,22.64
2018-05-23T08:04:53.489Z,22.67
2018-05-23T08:05:57.111Z,22.68
2018-05-23T08:07:00.460Z,22.69
2018-05-23T08:08:03.789Z,22.71
2018-05-23T08:09:07.111Z,22.73
2018-05-23T08:10:10.444Z,22.77
2018-05-23T08:11:13.833Z,22.79
2018-05-23T08:12:17.205Z,22.82
2018-05-23T08:13:20.519Z,22.85
2018-05-23T08:14:23.852Z,22.85
2018-05-23T08:15:27.205Z,22.86
2018-05-23T08:16:30.531Z,22.89
2018-05-23T08:17:33.870Z,22.92
2018-05-23T08:18:37.221Z,22.97
2018-05-23T08:19:40.530Z,23.03
2018-05-23T08:20:43.895Z,23.09
2018-05-23T08:21:47.232Z,23.19
2018-05-23T08:22:50.572Z,23.26
2018-05-23T08:23:53.894Z,23.34
2018-05-23T08:24:57.455Z,23.41
2018-05-23T08:26:00.827Z,23.48
2018-05-23T08:27:04.221Z,23.58
2018-05-23T08:28:07.573Z,23.64
2018-05-23T08:29:10.908Z,23.69
2018-05-23T08:30:14.223Z,23.76
2018-05-23T08:31:17.555Z,23.81
2018-05-23T08:32:20.927Z,23.85
2018-05-23T08:33:24.288Z,23.89
2018-05-23T08:34:27.836Z,23.90
2018-05-23T08:35:31.224Z,23.91
2018-05-23T08:36:34.600Z,23.91
2018-05-23T08:37:37.917Z,23.90
2018-05-23T08:38:41.273Z,23.89
2018-05-23T08:39:44.605Z,23.87
2018-05-23T08:40:47.983Z,23.86
2018-05-23T08:41:51.314Z,23.86
2018-05-23T08:42:54.674Z,23.86
2018-05-23T08:43:58.039Z,23.85
2018-05-23T08:45:01.373Z,23.87
2018-05-23T08:46:04.743Z,23.88
2018-05-23T08:47:08.039Z,23.90
2018-05-23T08:48:11.366Z,23.93
2018-05-23T08:49:14.704Z,23.95
2018-05-23T08:50:18.029Z,24.00
2018-05-23T08:51:21.371Z,24.04
2018-05-23T08:52:24.715Z,24.07
2018-05-23T08:53:28.087Z,24.12
2018-05-23T08:54:31.428Z,24.17
2018-05-23T08:55:34.742Z,24.23
2018-05-23T08:56:38.065Z,24.27
2018-05-23T08:57:41.390Z,24.33
2018-05-23T08:58:44.723Z,24.41
2018-05-23T08:59:48.074Z,24.47
2018-05-23T09:00:51.398Z,24.52
2018-05-23T09:01:54.739Z,24.56
2018-05-23T09:02:58.063Z,24.57
2018-05-23T09:04:01.397Z,24.59
2018-05-23T09:05:04.832Z,24.63
2018-05-23T09:06:08.255Z,24.67
2018-05-23T09:07:11.569Z,24.70
2018-05-23T09:08:14.882Z,24.71
2018-05-23T09:09:18.232Z,24.69
2018-05-23T09:10:21.575Z,24.68
2018-05-23T09:11:24.907Z,24.67
2018-05-23T09:12:28.355Z,24.66
2018-05-23T09:13:31.597Z,24.63
2018-05-23T09:14:34.999Z,24.62
2018-05-23T09:15:38.341Z,24.59
2018-05-23T09:16:41.653Z,24.55
2018-05-23T09:17:44.987Z,24.53
2018-05-23T09:18:48.308Z,24.50
2018-05-23T09:19:51.630Z,24.47
2018-05-23T09:20:54.998Z,24.45
2018-05-23T09:21:58.307Z,24.44
2018-05-23T09:23:01.638Z,24.43
2018-05-23T09:24:04.966Z,24.44
2018-05-23T09:25:08.443Z,24.44
2018-05-23T09:26:11.787Z,24.46
2018-05-23T09:27:15.108Z,24.48
2018-05-23T09:28:18.429Z,24.49
2018-05-23T09:29:21.761Z,24.49
2018-05-23T09:30:25.110Z,24.48
2018-05-23T09:31:28.447Z,24.48
2018-05-23T09:32:31.802Z,24.48
2018-05-23T09:33:35.118Z,24.49
2018-05-23T09:34:38.427Z,24.49
2018-05-23T09:35:41.763Z,24.47
2018-05-23T09:36:45.116Z,24.47
2018-05-23T09:37:48.426Z,24.45
2018-05-23T09:38:51.743Z,24.45
2018-05-23T09:39:55.050Z,24.44
2018-05-23T09:40:58.382Z,24.44
2018-05-23T09:42:01.731Z,24.45
2018-05-23T09:43:05.072Z,24.46
2018-05-23T09:44:08.413Z,24.45
2018-05-23T09:45:11.802Z,24.44
2018-05-23T09:46:15.053Z,24.44
2018-05-23T09:47:18.435Z,24.44
2018-05-23T09:48:21.751Z,24.43
2018-05-23T09:49:25.075Z,24.43
2018-05-23T09:50:28.410Z,24.43
2018-05-23T09:51:31.761Z,24.44
2018-05-23T09:52:35.330Z,24.44
2018-05-23T09:53:38.699Z,24.44
2018-05-23T09:54:42.018Z,24.44
2018-05-23T09:55:45.337Z,24.45
2018-05-23T09:56:48.660Z,24.46
2018-05-23T09:57:52.001Z,24.46
2018-05-23T09:58:55.336Z,24.47
2018-05-23T09:59:58.638Z,24.48
2018-05-23T10:01:01.992Z,24.49
2018-05-23T10:02:05.313Z,24.48
2018-05-23T10:03:08.658Z,24.49
2018-05-23T10:04:11.967Z,24.49
2018-05-23T10:05:15.271Z,24.49
2018-05-23T10:06:18.603Z,24.49
2018-05-23T10:07:21.899Z,24.50
2018-05-23T10:08:25.242Z,24.51
2018-05-23T10:09:28.564Z,24.53
2018-05-23T10:10:31.877Z,24.54
2018-05-23T10:11:35.218Z,24.54
2018-05-23T10:12:38.535Z,24.54
2018-05-23T10:13:41.886Z,24.55
2018-05-23T10:14:45.191Z,24.56
2018-05-23T10:15:48.506Z,24.59
2018-05-23T10:16:51.827Z,24.61
2018-05-23T10:17:55.149Z,24.63
2018-05-23T10:18:58.492Z,24.64
2018-05-23T10:20:01.807Z,24.64
2018-05-23T10:21:05.146Z,24.65
2018-05-23T10:22:08.462Z,24.65
2018-05-23T10:23:11.771Z,24.67
2018-05-23T10:24:15.122Z,24.69
2018-05-23T10:25:18.661Z,24.72
2018-05-23T10:26:22.055Z,24.76
2018-05-23T10:27:25.334Z,24.80
2018-05-23T10:28:28.662Z,24.83
2018-05-23T10:29:32.022Z,24.87
2018-05-23T10:30:35.332Z,24.91
2018-05-23T10:31:38.674Z,24.95
2018-05-23T10:32:42.017Z,24.97
2018-05-23T10:33:45.594Z,24.97
2018-05-23T10:34:49.126Z,24.97
2018-05-23T10:35:52.523Z,24.97
2018-05-23T10:36:55.867Z,24.98
2018-05-23T10:37:59.178Z,24.99
2018-05-23T10:39:02.536Z,24.99
2018-05-23T10:40:06.784Z,24.99
2018-05-23T10:41:10.108Z,25.02
2018-05-23T10:42:13.605Z,25.03
2018-05-23T10:43:16.929Z,25.04
2018-05-23T10:44:20.243Z,25.07
2018-05-23T10:45:23.987Z,25.10
2018-05-23T10:46:27.279Z,25.12
2018-05-23T10:47:30.595Z,25.13
2018-05-23T10:48:33.963Z,25.13
2018-05-23T10:49:37.334Z,25.14
2018-05-23T10:50:40.677Z,25.18
2018-05-23T10:51:44.048Z,25.21
2018-05-23T10:52:47.406Z,25.26
2018-05-23T10:53:50.828Z,25.32
2018-05-23T10:54:54.129Z,25.35
2018-05-23T10:55:57.471Z,25.40
2018-05-23T10:57:00.871Z,25.45
2018-05-23T10:58:04.102Z,25.50
2018-05-23T10:59:07.411Z,25.54
2018-05-23T11:00:10.769Z,25.57
2018-05-23T11:01:14.059Z,25.60
2018-05-23T11:02:17.372Z,25.63
2018-05-23T11:03:20.678Z,25.65
2018-05-23T11:04:24.022Z,25.68
2018-05-23T11:05:27.317Z,25.68
2018-05-23T11:06:30.663Z,25.69
2018-05-23T11:07:33.960Z,25.70
2018-05-23T11:08:37.277Z,25.71
2018-05-23T11:09:40.612Z,25.72
2018-05-23T11:10:43.933Z,25.73
2018-05-23T11:11:47.296Z,25.74
2018-05-23T11:12:50.605Z,25.71
2018-05-23T11:13:53.929Z,25.65
2018-05-23T11:14:57.280Z,25.57
2018-05-23T11:16:00.594Z,25.50
2018-05-23T11:17:03.997Z,25.45
2018-05-23T11:18:07.247Z,25.42
2018-05-23T11:19:10.574Z,25.36
2018-05-23T11:20:13.860Z,25.29
2018-05-23T11:21:17.172Z,25.24
2018-05-23T11:22:20.515Z,25.20
2018-05-23T11:24:33.331Z,25.16
2018-05-23T11:25:36.929Z,25.14
2018-05-23T11:26:40.227Z,25.12
2018-05-23T11:27:43.556Z,25.12
2018-05-23T11:28:46.892Z,25.11
2018-05-23T11:29:50.214Z,25.10
2018-05-23T11:30:53.531Z,25.09
2018-05-23T11:31:56.845Z,25.07
2018-05-23T11:33:00.187Z,25.05
2018-05-23T11:34:03.499Z,25.04
2018-05-23T11:35:06.818Z,25.03
2018-05-23T11:36:10.121Z,25.01
2018-05-23T11:37:13.438Z,24.98
2018-05-23T11:38:16.756Z,24.94
2018-05-23T11:39:20.055Z,24.89
2018-05-23T11:40:23.366Z,24.85
2018-05-23T11:41:26.697Z,24.80
2018-05-23T11:42:30.006Z,24.72
2018-05-23T11:43:33.338Z,24.65
2018-05-23T11:44:36.692Z,24.58
2018-05-23T11:45:40.003Z,24.52
2018-05-23T11:46:43.447Z,24.47
2018-05-23T11:47:46.630Z,24.43
2018-05-23T11:48:49.979Z,24.38
2018-05-23T11:49:53.346Z,24.36
2018-05-23T11:50:56.647Z,24.33
2018-05-23T11:51:59.944Z,24.31
2018-05-23T11:53:03.263Z,24.28
2018-05-23T11:54:06.592Z,24.27
2018-05-23T11:55:09.902Z,24.27
2018-05-23T11:56:13.298Z,24.29
2018-05-23T11:57:16.614Z,24.30
2018-05-23T11:58:19.930Z,24.27
2018-05-23T11:59:23.250Z,24.22
2018-05-23T12:00:26.578Z,24.14
2018-05-23T12:01:29.924Z,24.06
2018-05-23T12:02:33.237Z,24.00
2018-05-23T12:03:36.551Z,23.93
2018-05-23T12:04:39.883Z,23.85
2018-05-23T12:05:43.207Z,23.75
2018-05-23T12:06:46.523Z,23.66
2018-05-23T12:07:49.853Z,23.57
2018-05-23T12:08:53.164Z,23.49
2018-05-23T12:09:56.499Z,23.38
2018-05-23T12:10:59.811Z,23.30
2018-05-23T12:12:03.136Z,23.23
2018-05-23T12:13:06.466Z,23.16
2018-05-23T12:14:09.809Z,23.10
2018-05-23T12:15:13.149Z,23.04
2018-05-23T12:16:16.460Z,23.00
2018-05-23T12:17:19.771Z,22.99
2018-05-23T12:18:23.157Z,23.01
2018-05-23T12:19:26.460Z,23.03
2018-05-23T12:20:29.816Z,23.05
2018-05-23T12:21:33.133Z,23.06
2018-05-23T12:22:36.448Z,23.08
2018-05-23T12:23:39.765Z,23.10
2018-05-23T12:24:43.076Z,23.11
2018-05-23T12:25:46.515Z,23.14
2018-05-23T12:26:49.811Z,23.17
2018-05-23T12:27:53.139Z,23.21
2018-05-23T12:28:56.472Z,23.27
2018-05-23T12:29:59.806Z,23.33
2018-05-23T12:31:03.150Z,23.40
2018-05-23T12:32:06.482Z,23.46
2018-05-23T12:33:09.800Z,23.52
2018-05-23T12:34:13.106Z,23.58
2018-05-23T12:35:16.408Z,23.66
2018-05-23T12:36:19.752Z,23.73
2018-05-23T12:37:23.068Z,23.79
2018-05-23T12:38:26.392Z,23.86
2018-05-23T12:39:30.099Z,23.93
2018-05-23T12:40:33.408Z,23.97
2018-05-23T12:41:36.773Z,24.03
2018-05-23T12:42:40.088Z,24.07
2018-05-23T12:43:43.406Z,24.13
2018-05-23T12:44:46.720Z,24.18
2018-05-23T12:45:50.041Z,24.23
2018-05-23T12:46:53.376Z,24.29
2018-05-23T12:47:56.686Z,24.32
2018-05-23T12:49:00.044Z,24.36
2018-05-23T12:50:03.357Z,24.41
2018-05-23T12:51:06.675Z,24.43
2018-05-23T12:52:10.035Z,24.43
2018-05-23T12:53:13.354Z,24.43
2018-05-23T12:54:16.673Z,24.44
2018-05-23T12:55:19.999Z,24.45
2018-05-23T12:56:23.317Z,24.43
2018-05-23T12:57:26.664Z,24.44
2018-05-23T12:58:29.963Z,24.43
2018-05-23T12:59:33.269Z,24.44
2018-05-23T13:00:36.566Z,24.43
2018-05-23T13:01:39.889Z,24.44
2018-05-23T13:02:43.215Z,24.44
2018-05-23T13:03:46.524Z,24.44
2018-05-23T13:04:49.831Z,24.43
2018-05-23T13:05:53.154Z,24.41
2018-05-23T13:06:56.483Z,24.38
2018-05-23T13:07:59.824Z,24.34
2018-05-23T13:09:03.131Z,24.28
2018-05-23T13:10:06.438Z,24.23
2018-05-23T13:11:09.758Z,24.14
2018-05-23T13:12:13.089Z,24.03
2018-05-23T13:13:16.447Z,23.93
2018-05-23T13:14:19.747Z,23.85
2018-05-23T13:15:23.087Z,23.80
2018-05-23T13:16:26.429Z,23.75
2018-05-23T13:17:29.736Z,23.73
2018-05-23T13:18:33.086Z,23.74
2018-05-23T13:19:36.412Z,23.75
2018-05-23T13:20:39.727Z,23.77
2018-05-23T13:21:43.114Z,23.80
2018-05-23T13:22:46.447Z,23.83
2018-05-23T13:23:49.845Z,23.86
2018-05-23T13:24:53.146Z,23.88
2018-05-23T13:25:56.616Z,23.91
2018-05-23T13:26:59.918Z,23.93
2018-05-23T13:28:03.258Z,23.96
2018-05-23T13:29:06.608Z,23.99
2018-05-23T13:30:09.919Z,24.05
2018-05-23T13:31:13.268Z,24.10
2018-05-23T13:32:16.606Z,24.15
2018-05-23T13:33:19.906Z,24.21
2018-05-23T13:34:23.247Z,24.26
2018-05-23T13:35:26.572Z,24.31
2018-05-23T13:36:29.907Z,24.36
2018-05-23T13:37:33.230Z,24.40
2018-05-23T13:38:36.529Z,24.46